sensor_id;sensor_type;location;lat;lon;timestamp;temperature;humidity
58517;DHT22;44308;50.810;0.284;2023-05-29T00:00:22;12.50;99.90
58517;DHT22;44308;50.810;0.284;2023-05-29T00:02:49;12.40;99.90
58517;DHT22;44308;50.810;0.284;2023-05-29T00:05:16;12.40;99.90
58517;DHT22;44308;50.810;0.284;2023-05-29T00:07:42;12.40;99.90
58517;DHT22;44308;50.810;0.284;2023-05-29T00:10:10;12.40;99.90
58517;DHT22;44308;50.810;0.284;2023-05-29T00:12:37;12.40;99.90
58517;DHT22;44308;50.810;0.284;2023-05-29T00:15:03;12.30;99.90
58517;DHT22;44308;50.810;0.284;2023-05-29T00:17:29;12.30;99.90
58517;DHT22;44308;50.810;0.284;2023-05-29T00:20:01;12.30;99.90
58517;DHT22;44308;50.810;0.284;2023-05-29T00:22:28;12.20;99.90
58517;DHT22;44308;50.810;0.284;2023-05-29T00:24:54;12.20;99.90
58517;DHT22;44308;50.810;0.284;2023-05-29T00:27:23;12.20;99.90
58517;DHT22;44308;50.810;0.284;2023-05-29T00:29:49;12.10;99.90
58517;DHT22;44308;50.810;0.284;2023-05-29T00:32:14;12.10;99.90
58517;DHT22;44308;50.810;0.284;2023-05-29T00:34:40;12.10;99.90
58517;DHT22;44308;50.810;0.284;2023-05-29T00:37:06;12.00;99.90
58517;DHT22;44308;50.810;0.284;2023-05-29T00:39:32;12.00;99.90
58517;DHT22;44308;50.810;0.284;2023-05-29T00:41:57;11.90;99.90
58517;DHT22;44308;50.810;0.284;2023-05-29T00:44:23;11.90;99.90
58517;DHT22;44308;50.810;0.284;2023-05-29T00:46:52;11.90;99.90
58517;DHT22;44308;50.810;0.284;2023-05-29T00:49:20;11.90;99.90
58517;DHT22;44308;50.810;0.284;2023-05-29T00:51:47;11.90;99.90
58517;DHT22;44308;50.810;0.284;2023-05-29T00:54:20;11.90;99.90
58517;DHT22;44308;50.810;0.284;2023-05-29T00:56:47;11.80;99.90
58517;DHT22;44308;50.810;0.284;2023-05-29T00:59:14;11.80;99.90
58517;DHT22;44308;50.810;0.284;2023-05-29T01:01:42;11.80;99.90
58517;DHT22;44308;50.810;0.284;2023-05-29T01:04:11;11.80;99.90
58517;DHT22;44308;50.810;0.284;2023-05-29T01:06:38;11.80;99.90
58517;DHT22;44308;50.810;0.284;2023-05-29T01:09:05;11.80;99.90
58517;DHT22;44308;50.810;0.284;2023-05-29T01:17:24;11.70;99.90
58517;DHT22;44308;50.810;0.284;2023-05-29T01:22:58;11.70;99.90
58517;DHT22;44308;50.810;0.284;2023-05-29T01:28:17;11.60;99.90
58517;DHT22;44308;50.810;0.284;2023-05-29T01:30:45;11.60;99.90
58517;DHT22;44308;50.810;0.284;2023-05-29T01:33:11;11.50;99.90
58517;DHT22;44308;50.810;0.284;2023-05-29T01:35:40;11.50;99.90
58517;DHT22;44308;50.810;0.284;2023-05-29T01:38:05;11.50;99.90
58517;DHT22;44308;50.810;0.284;2023-05-29T01:40:32;11.50;99.90
58517;DHT22;44308;50.810;0.284;2023-05-29T01:42:58;11.40;99.90
58517;DHT22;44308;50.810;0.284;2023-05-29T01:45:24;11.40;99.90
58517;DHT22;44308;50.810;0.284;2023-05-29T01:47:51;11.40;99.90
58517;DHT22;44308;50.810;0.284;2023-05-29T01:50:18;11.40;99.90
58517;DHT22;44308;50.810;0.284;2023-05-29T01:52:44;11.40;99.90
58517;DHT22;44308;50.810;0.284;2023-05-29T01:55:11;11.40;99.90
58517;DHT22;44308;50.810;0.284;2023-05-29T01:57:37;11.30;99.90
58517;DHT22;44308;50.810;0.284;2023-05-29T02:00:04;11.30;99.90
58517;DHT22;44308;50.810;0.284;2023-05-29T02:02:40;11.30;99.90
58517;DHT22;44308;50.810;0.284;2023-05-29T02:05:08;11.30;99.90
58517;DHT22;44308;50.810;0.284;2023-05-29T02:07:37;11.30;99.90
58517;DHT22;44308;50.810;0.284;2023-05-29T02:10:08;11.30;99.90
58517;DHT22;44308;50.810;0.284;2023-05-29T02:12:33;11.30;99.90
58517;DHT22;44308;50.810;0.284;2023-05-29T02:14:59;11.20;99.90
58517;DHT22;44308;50.810;0.284;2023-05-29T02:17:25;11.20;99.90
58517;DHT22;44308;50.810;0.284;2023-05-29T02:19:52;11.20;99.90
58517;DHT22;44308;50.810;0.284;2023-05-29T02:22:18;11.20;99.90
58517;DHT22;44308;50.810;0.284;2023-05-29T02:24:44;11.20;99.90
58517;DHT22;44308;50.810;0.284;2023-05-29T02:27:10;11.20;99.90
58517;DHT22;44308;50.810;0.284;2023-05-29T02:29:36;11.20;99.90
58517;DHT22;44308;50.810;0.284;2023-05-29T02:32:01;11.20;99.90
58517;DHT22;44308;50.810;0.284;2023-05-29T02:34:27;11.20;99.90
58517;DHT22;44308;50.810;0.284;2023-05-29T02:36:53;11.20;99.90
58517;DHT22;44308;50.810;0.284;2023-05-29T02:39:19;11.20;99.90
58517;DHT22;44308;50.810;0.284;2023-05-29T02:41:45;11.20;99.90
58517;DHT22;44308;50.810;0.284;2023-05-29T02:44:10;11.20;99.90
58517;DHT22;44308;50.810;0.284;2023-05-29T02:46:36;11.20;99.90
58517;DHT22;44308;50.810;0.284;2023-05-29T02:49:02;11.20;99.90
58517;DHT22;44308;50.810;0.284;2023-05-29T02:51:28;11.20;99.90
58517;DHT22;44308;50.810;0.284;2023-05-29T02:53:53;11.20;99.90
58517;DHT22;44308;50.810;0.284;2023-05-29T02:56:19;11.20;99.90
58517;DHT22;44308;50.810;0.284;2023-05-29T02:58:50;11.20;99.90
58517;DHT22;44308;50.810;0.284;2023-05-29T03:01:16;11.20;99.90
58517;DHT22;44308;50.810;0.284;2023-05-29T03:03:42;11.20;99.90
58517;DHT22;44308;50.810;0.284;2023-05-29T03:06:08;11.20;99.90
58517;DHT22;44308;50.810;0.284;2023-05-29T03:08:37;11.20;99.90
58517;DHT22;44308;50.810;0.284;2023-05-29T03:11:08;11.20;99.90
58517;DHT22;44308;50.810;0.284;2023-05-29T03:13:40;11.10;99.90
58517;DHT22;44308;50.810;0.284;2023-05-29T03:16:05;11.10;99.90
58517;DHT22;44308;50.810;0.284;2023-05-29T03:21:21;11.10;99.90
58517;DHT22;44308;50.810;0.284;2023-05-29T03:23:47;11.10;99.90
58517;DHT22;44308;50.810;0.284;2023-05-29T03:26:13;11.10;99.90
58517;DHT22;44308;50.810;0.284;2023-05-29T03:28:40;11.10;99.90
58517;DHT22;44308;50.810;0.284;2023-05-29T03:31:05;11.00;99.90
58517;DHT22;44308;50.810;0.284;2023-05-29T03:33:31;11.10;99.90
58517;DHT22;44308;50.810;0.284;2023-05-29T03:35:56;11.00;99.90
58517;DHT22;44308;50.810;0.284;2023-05-29T03:38:23;11.10;99.90
58517;DHT22;44308;50.810;0.284;2023-05-29T03:40:49;11.10;99.90
58517;DHT22;44308;50.810;0.284;2023-05-29T03:43:14;11.00;99.90
58517;DHT22;44308;50.810;0.284;2023-05-29T03:45:40;11.10;99.90
58517;DHT22;44308;50.810;0.284;2023-05-29T03:48:06;11.00;99.90
58517;DHT22;44308;50.810;0.284;2023-05-29T03:50:31;11.00;99.90
58517;DHT22;44308;50.810;0.284;2023-05-29T03:52:57;11.00;99.90
58517;DHT22;44308;50.810;0.284;2023-05-29T03:55:23;11.00;99.90
58517;DHT22;44308;50.810;0.284;2023-05-29T03:57:48;11.00;99.90
58517;DHT22;44308;50.810;0.284;2023-05-29T04:00:14;11.00;99.90
58517;DHT22;44308;50.810;0.284;2023-05-29T04:02:40;10.90;99.90
58517;DHT22;44308;50.810;0.284;2023-05-29T04:05:07;10.90;99.90
58517;DHT22;44308;50.810;0.284;2023-05-29T04:07:35;10.90;99.90
58517;DHT22;44308;50.810;0.284;2023-05-29T04:10:06;10.90;99.90
58517;DHT22;44308;50.810;0.284;2023-05-29T04:12:35;10.90;99.90
58517;DHT22;44308;50.810;0.284;2023-05-29T04:15:00;10.90;99.90
58517;DHT22;44308;50.810;0.284;2023-05-29T04:17:26;11.00;99.90
58517;DHT22;44308;50.810;0.284;2023-05-29T04:19:53;11.00;99.90
58517;DHT22;44308;50.810;0.284;2023-05-29T04:22:19;11.00;99.90
58517;DHT22;44308;50.810;0.284;2023-05-29T04:24:46;11.00;99.90
58517;DHT22;44308;50.810;0.284;2023-05-29T04:27:12;11.00;99.90
58517;DHT22;44308;50.810;0.284;2023-05-29T04:29:39;11.00;99.90
58517;DHT22;44308;50.810;0.284;2023-05-29T04:32:08;11.00;99.90
58517;DHT22;44308;50.810;0.284;2023-05-29T04:34:35;11.00;99.90
58517;DHT22;44308;50.810;0.284;2023-05-29T04:37:04;11.10;99.90
58517;DHT22;44308;50.810;0.284;2023-05-29T04:39:30;11.10;99.90
58517;DHT22;44308;50.810;0.284;2023-05-29T04:41:55;11.10;99.90
58517;DHT22;44308;50.810;0.284;2023-05-29T04:44:24;11.10;99.90
58517;DHT22;44308;50.810;0.284;2023-05-29T04:46:52;11.10;99.90
58517;DHT22;44308;50.810;0.284;2023-05-29T04:49:18;11.10;99.90
58517;DHT22;44308;50.810;0.284;2023-05-29T04:51:44;11.20;99.90
58517;DHT22;44308;50.810;0.284;2023-05-29T04:54:11;11.20;99.90
58517;DHT22;44308;50.810;0.284;2023-05-29T04:56:39;11.20;99.90
58517;DHT22;44308;50.810;0.284;2023-05-29T04:59:08;11.20;99.90
58517;DHT22;44308;50.810;0.284;2023-05-29T05:01:34;11.30;99.90
58517;DHT22;44308;50.810;0.284;2023-05-29T05:04:00;11.30;99.90
58517;DHT22;44308;50.810;0.284;2023-05-29T05:06:26;11.30;99.90
58517;DHT22;44308;50.810;0.284;2023-05-29T05:08:53;11.40;99.90
58517;DHT22;44308;50.810;0.284;2023-05-29T05:11:19;11.40;99.90
58517;DHT22;44308;50.810;0.284;2023-05-29T05:13:46;11.40;99.90
58517;DHT22;44308;50.810;0.284;2023-05-29T05:16:12;11.50;99.90
58517;DHT22;44308;50.810;0.284;2023-05-29T05:19:01;11.50;99.90
58517;DHT22;44308;50.810;0.284;2023-05-29T05:21:26;11.60;99.90
58517;DHT22;44308;50.810;0.284;2023-05-29T05:23:52;11.60;99.90
58517;DHT22;44308;50.810;0.284;2023-05-29T05:26:18;11.70;99.90
58517;DHT22;44308;50.810;0.284;2023-05-29T05:31:31;11.80;99.90
58517;DHT22;44308;50.810;0.284;2023-05-29T05:33:57;11.80;99.90
58517;DHT22;44308;50.810;0.284;2023-05-29T05:36:23;11.90;99.90
58517;DHT22;44308;50.810;0.284;2023-05-29T05:38:49;11.90;99.90
58517;DHT22;44308;50.810;0.284;2023-05-29T05:41:14;12.00;99.90
58517;DHT22;44308;50.810;0.284;2023-05-29T05:43:40;12.00;99.90
58517;DHT22;44308;50.810;0.284;2023-05-29T05:46:05;12.10;99.90
58517;DHT22;44308;50.810;0.284;2023-05-29T05:48:31;12.20;99.90
58517;DHT22;44308;50.810;0.284;2023-05-29T05:50:57;12.20;99.90
58517;DHT22;44308;50.810;0.284;2023-05-29T05:53:22;12.30;99.90
58517;DHT22;44308;50.810;0.284;2023-05-29T05:55:48;12.30;99.90
58517;DHT22;44308;50.810;0.284;2023-05-29T05:58:14;12.40;99.90
58517;DHT22;44308;50.810;0.284;2023-05-29T06:00:40;12.40;99.90
58517;DHT22;44308;50.810;0.284;2023-05-29T06:03:06;12.50;99.90
58517;DHT22;44308;50.810;0.284;2023-05-29T06:05:32;12.50;99.90
58517;DHT22;44308;50.810;0.284;2023-05-29T06:07:59;12.60;99.90
58517;DHT22;44308;50.810;0.284;2023-05-29T06:10:25;12.70;99.90
58517;DHT22;44308;50.810;0.284;2023-05-29T06:12:53;12.80;99.90
58517;DHT22;44308;50.810;0.284;2023-05-29T06:15:19;12.90;99.90
58517;DHT22;44308;50.810;0.284;2023-05-29T06:17:45;13.00;99.90
58517;DHT22;44308;50.810;0.284;2023-05-29T06:20:11;13.10;99.90
58517;DHT22;44308;50.810;0.284;2023-05-29T06:22:38;13.70;99.90
58517;DHT22;44308;50.810;0.284;2023-05-29T06:25:04;14.60;99.90
58517;DHT22;44308;50.810;0.284;2023-05-29T06:27:30;15.40;99.90
58517;DHT22;44308;50.810;0.284;2023-05-29T06:29:57;16.10;99.90
58517;DHT22;44308;50.810;0.284;2023-05-29T06:32:23;16.40;99.90
58517;DHT22;44308;50.810;0.284;2023-05-29T06:34:48;16.40;99.90
58517;DHT22;44308;50.810;0.284;2023-05-29T06:37:14;17.20;99.90
58517;DHT22;44308;50.810;0.284;2023-05-29T06:39:40;17.40;99.90
58517;DHT22;44308;50.810;0.284;2023-05-29T06:42:09;18.00;99.90
58517;DHT22;44308;50.810;0.284;2023-05-29T06:44:35;18.30;99.90
58517;DHT22;44308;50.810;0.284;2023-05-29T06:47:01;18.90;99.90
58517;DHT22;44308;50.810;0.284;2023-05-29T06:49:27;19.10;99.90
58517;DHT22;44308;50.810;0.284;2023-05-29T06:51:52;19.80;99.90
58517;DHT22;44308;50.810;0.284;2023-05-29T06:54:21;20.20;99.90
58517;DHT22;44308;50.810;0.284;2023-05-29T06:56:46;19.50;99.90
58517;DHT22;44308;50.810;0.284;2023-05-29T06:59:12;19.80;99.90
58517;DHT22;44308;50.810;0.284;2023-05-29T07:01:38;19.70;99.90
58517;DHT22;44308;50.810;0.284;2023-05-29T07:04:04;19.80;99.90
58517;DHT22;44308;50.810;0.284;2023-05-29T07:06:30;20.20;99.90
58517;DHT22;44308;50.810;0.284;2023-05-29T07:08:55;20.30;99.90
58517;DHT22;44308;50.810;0.284;2023-05-29T07:11:21;20.00;99.90
58517;DHT22;44308;50.810;0.284;2023-05-29T07:13:50;20.20;99.90
58517;DHT22;44308;50.810;0.284;2023-05-29T07:16:16;20.50;99.90
58517;DHT22;44308;50.810;0.284;2023-05-29T07:18:44;20.00;99.90
58517;DHT22;44308;50.810;0.284;2023-05-29T07:21:09;20.20;99.90
58517;DHT22;44308;50.810;0.284;2023-05-29T07:23:36;20.40;99.90
58517;DHT22;44308;50.810;0.284;2023-05-29T07:26:01;20.70;99.90
58517;DHT22;44308;50.810;0.284;2023-05-29T07:28:28;20.40;99.90
58517;DHT22;44308;50.810;0.284;2023-05-29T07:30:55;20.40;99.90
58517;DHT22;44308;50.810;0.284;2023-05-29T07:33:21;20.60;99.90
58517;DHT22;44308;50.810;0.284;2023-05-29T07:35:48;21.10;99.90
58517;DHT22;44308;50.810;0.284;2023-05-29T07:38:13;21.10;99.90
58517;DHT22;44308;50.810;0.284;2023-05-29T07:40:39;21.10;99.90
58517;DHT22;44308;50.810;0.284;2023-05-29T07:43:05;21.30;99.90
58517;DHT22;44308;50.810;0.284;2023-05-29T07:45:31;21.00;99.90
58517;DHT22;44308;50.810;0.284;2023-05-29T07:48:00;21.60;99.90
58517;DHT22;44308;50.810;0.284;2023-05-29T07:50:25;22.30;99.90
58517;DHT22;44308;50.810;0.284;2023-05-29T07:52:52;22.00;99.90
58517;DHT22;44308;50.810;0.284;2023-05-29T07:55:18;21.60;99.90
58517;DHT22;44308;50.810;0.284;2023-05-29T07:57:43;21.90;99.90
58517;DHT22;44308;50.810;0.284;2023-05-29T08:00:10;22.40;99.90
58517;DHT22;44308;50.810;0.284;2023-05-29T08:02:40;22.50;99.90
58517;DHT22;44308;50.810;0.284;2023-05-29T08:05:08;22.60;99.90
58517;DHT22;44308;50.810;0.284;2023-05-29T08:07:35;22.30;99.90
58517;DHT22;44308;50.810;0.284;2023-05-29T08:13:24;21.50;99.90
58517;DHT22;44308;50.810;0.284;2023-05-29T08:15:50;21.40;99.90
58517;DHT22;44308;50.810;0.284;2023-05-29T08:18:16;21.30;99.90
58517;DHT22;44308;50.810;0.284;2023-05-29T08:20:41;20.90;99.90
58517;DHT22;44308;50.810;0.284;2023-05-29T08:23:08;20.70;99.90
58517;DHT22;44308;50.810;0.284;2023-05-29T08:25:34;20.60;99.90
58517;DHT22;44308;50.810;0.284;2023-05-29T08:27:59;20.60;99.90
58517;DHT22;44308;50.810;0.284;2023-05-29T08:30:25;20.50;99.90
58517;DHT22;44308;50.810;0.284;2023-05-29T08:32:51;20.50;99.90
58517;DHT22;44308;50.810;0.284;2023-05-29T08:35:17;20.80;99.90
58517;DHT22;44308;50.810;0.284;2023-05-29T08:37:43;20.90;99.90
58517;DHT22;44308;50.810;0.284;2023-05-29T08:43:50;21.40;99.90
58517;DHT22;44308;50.810;0.284;2023-05-29T08:46:18;21.70;99.90
58517;DHT22;44308;50.810;0.284;2023-05-29T08:52:09;22.00;99.90
58517;DHT22;44308;50.810;0.284;2023-05-29T08:54:35;22.00;99.90
58517;DHT22;44308;50.810;0.284;2023-05-29T08:57:01;22.40;99.90
58517;DHT22;44308;50.810;0.284;2023-05-29T08:59:49;22.40;99.90
58517;DHT22;44308;50.810;0.284;2023-05-29T09:02:16;22.30;99.90
58517;DHT22;44308;50.810;0.284;2023-05-29T09:04:42;21.80;99.90
58517;DHT22;44308;50.810;0.284;2023-05-29T09:07:16;22.10;99.90
58517;DHT22;44308;50.810;0.284;2023-05-29T09:09:46;22.10;99.90
58517;DHT22;44308;50.810;0.284;2023-05-29T09:12:12;22.10;99.90
58517;DHT22;44308;50.810;0.284;2023-05-29T09:14:42;21.50;99.90
58517;DHT22;44308;50.810;0.284;2023-05-29T09:17:09;20.50;99.90
58517;DHT22;44308;50.810;0.284;2023-05-29T09:19:54;20.30;99.90
58517;DHT22;44308;50.810;0.284;2023-05-29T09:22:19;20.00;99.90
58517;DHT22;44308;50.810;0.284;2023-05-29T09:24:47;20.50;99.90
58517;DHT22;44308;50.810;0.284;2023-05-29T09:27:13;20.30;99.90
58517;DHT22;44308;50.810;0.284;2023-05-29T09:29:41;20.00;99.90
58517;DHT22;44308;50.810;0.284;2023-05-29T09:32:09;20.00;99.90
58517;DHT22;44308;50.810;0.284;2023-05-29T09:34:35;19.60;99.90
58517;DHT22;44308;50.810;0.284;2023-05-29T09:37:07;19.90;99.90
58517;DHT22;44308;50.810;0.284;2023-05-29T09:39:47;19.80;99.90
58517;DHT22;44308;50.810;0.284;2023-05-29T09:42:14;20.20;99.90
58517;DHT22;44308;50.810;0.284;2023-05-29T09:44:42;20.30;99.90
58517;DHT22;44308;50.810;0.284;2023-05-29T09:47:07;20.20;99.90
58517;DHT22;44308;50.810;0.284;2023-05-29T09:49:40;20.20;99.90
58517;DHT22;44308;50.810;0.284;2023-05-29T09:52:06;19.80;99.90
58517;DHT22;44308;50.810;0.284;2023-05-29T09:54:35;19.90;99.90
58517;DHT22;44308;50.810;0.284;2023-05-29T09:57:03;19.70;99.90
58517;DHT22;44308;50.810;0.284;2023-05-29T09:59:33;19.70;99.90
58517;DHT22;44308;50.810;0.284;2023-05-29T10:02:03;19.60;99.90
58517;DHT22;44308;50.810;0.284;2023-05-29T10:04:33;19.50;99.90
58517;DHT22;44308;50.810;0.284;2023-05-29T10:07:11;19.00;99.90
58517;DHT22;44308;50.810;0.284;2023-05-29T10:09:42;18.60;99.90
58517;DHT22;44308;50.810;0.284;2023-05-29T10:12:11;18.50;99.90
58517;DHT22;44308;50.810;0.284;2023-05-29T10:14:37;18.50;99.90
58517;DHT22;44308;50.810;0.284;2023-05-29T10:17:07;19.20;99.90
58517;DHT22;44308;50.810;0.284;2023-05-29T10:19:37;20.00;99.90
58517;DHT22;44308;50.810;0.284;2023-05-29T10:22:04;20.70;99.90
58517;DHT22;44308;50.810;0.284;2023-05-29T10:24:35;21.40;99.90
58517;DHT22;44308;50.810;0.284;2023-05-29T10:27:05;21.80;99.90
58517;DHT22;44308;50.810;0.284;2023-05-29T10:29:46;22.00;99.90
58517;DHT22;44308;50.810;0.284;2023-05-29T10:35:27;20.90;99.90
58517;DHT22;44308;50.810;0.284;2023-05-29T10:38:08;20.80;99.90
58517;DHT22;44308;50.810;0.284;2023-05-29T10:40:34;20.80;99.90
58517;DHT22;44308;50.810;0.284;2023-05-29T10:43:00;20.40;99.90
58517;DHT22;44308;50.810;0.284;2023-05-29T10:50:43;20.90;99.90
58517;DHT22;44308;50.810;0.284;2023-05-29T10:53:14;20.50;99.90
58517;DHT22;44308;50.810;0.284;2023-05-29T10:55:40;20.80;99.90
58517;DHT22;44308;50.810;0.284;2023-05-29T10:58:14;21.10;99.90
58517;DHT22;44308;50.810;0.284;2023-05-29T11:00:58;21.40;99.90
58517;DHT22;44308;50.810;0.284;2023-05-29T11:03:34;21.00;99.90
58517;DHT22;44308;50.810;0.284;2023-05-29T11:08:35;20.20;99.90
58517;DHT22;44308;50.810;0.284;2023-05-29T11:11:02;20.50;99.90
58517;DHT22;44308;50.810;0.284;2023-05-29T11:13:33;20.40;99.90
58517;DHT22;44308;50.810;0.284;2023-05-29T11:16:13;20.40;99.90
58517;DHT22;44308;50.810;0.284;2023-05-29T11:18:45;20.50;99.90
58517;DHT22;44308;50.810;0.284;2023-05-29T11:21:22;20.80;99.90
58517;DHT22;44308;50.810;0.284;2023-05-29T11:23:51;20.60;99.90
58517;DHT22;44308;50.810;0.284;2023-05-29T11:26:20;21.20;99.90
58517;DHT22;44308;50.810;0.284;2023-05-29T11:28:46;21.50;99.90
58517;DHT22;44308;50.810;0.284;2023-05-29T11:31:12;21.40;99.90
58517;DHT22;44308;50.810;0.284;2023-05-29T11:33:48;21.20;99.90
58517;DHT22;44308;50.810;0.284;2023-05-29T11:36:21;21.00;99.90
58517;DHT22;44308;50.810;0.284;2023-05-29T11:38:47;20.50;99.90
58517;DHT22;44308;50.810;0.284;2023-05-29T11:41:13;20.20;99.90
58517;DHT22;44308;50.810;0.284;2023-05-29T11:43:39;19.80;99.90
58517;DHT22;44308;50.810;0.284;2023-05-29T11:46:18;20.20;99.90
58517;DHT22;44308;50.810;0.284;2023-05-29T11:48:46;20.20;99.90
58517;DHT22;44308;50.810;0.284;2023-05-29T11:51:12;20.20;99.90
58517;DHT22;44308;50.810;0.284;2023-05-29T11:53:42;20.30;99.90
58517;DHT22;44308;50.810;0.284;2023-05-29T11:56:12;20.00;99.90
58517;DHT22;44308;50.810;0.284;2023-05-29T11:58:42;19.80;99.90
58517;DHT22;44308;50.810;0.284;2023-05-29T12:01:09;19.80;99.90
58517;DHT22;44308;50.810;0.284;2023-05-29T12:03:41;19.90;99.90
58517;DHT22;44308;50.810;0.284;2023-05-29T12:06:09;19.80;99.90
58517;DHT22;44308;50.810;0.284;2023-05-29T12:08:36;20.10;99.90
58517;DHT22;44308;50.810;0.284;2023-05-29T12:11:02;20.40;99.90
58517;DHT22;44308;50.810;0.284;2023-05-29T12:13:28;20.70;99.90
58517;DHT22;44308;50.810;0.284;2023-05-29T12:15:57;20.60;99.90
58517;DHT22;44308;50.810;0.284;2023-05-29T12:18:24;20.40;99.90
58517;DHT22;44308;50.810;0.284;2023-05-29T12:20:50;20.50;99.90
58517;DHT22;44308;50.810;0.284;2023-05-29T12:23:17;20.40;99.90
58517;DHT22;44308;50.810;0.284;2023-05-29T12:25:47;20.30;99.90
58517;DHT22;44308;50.810;0.284;2023-05-29T12:28:17;20.70;99.90
58517;DHT22;44308;50.810;0.284;2023-05-29T12:30:46;20.70;99.90
58517;DHT22;44308;50.810;0.284;2023-05-29T12:33:28;20.80;99.90
58517;DHT22;44308;50.810;0.284;2023-05-29T12:36:00;20.90;99.90
58517;DHT22;44308;50.810;0.284;2023-05-29T12:38:26;21.10;99.90
58517;DHT22;44308;50.810;0.284;2023-05-29T12:40:52;20.50;99.90
58517;DHT22;44308;50.810;0.284;2023-05-29T12:43:19;20.50;99.90
58517;DHT22;44308;50.810;0.284;2023-05-29T12:45:45;20.40;99.90
58517;DHT22;44308;50.810;0.284;2023-05-29T12:48:10;20.60;99.90
58517;DHT22;44308;50.810;0.284;2023-05-29T12:50:40;20.70;99.90
58517;DHT22;44308;50.810;0.284;2023-05-29T12:53:08;20.70;99.90
58517;DHT22;44308;50.810;0.284;2023-05-29T12:55:35;20.60;99.90
58517;DHT22;44308;50.810;0.284;2023-05-29T12:58:14;20.50;99.90
58517;DHT22;44308;50.810;0.284;2023-05-29T13:00:56;20.50;99.90
58517;DHT22;44308;50.810;0.284;2023-05-29T13:03:22;20.50;99.90
58517;DHT22;44308;50.810;0.284;2023-05-29T13:05:50;20.50;99.90
58517;DHT22;44308;50.810;0.284;2023-05-29T13:08:15;20.70;99.90
58517;DHT22;44308;50.810;0.284;2023-05-29T13:10:41;21.00;99.90
58517;DHT22;44308;50.810;0.284;2023-05-29T13:13:07;20.80;99.90
58517;DHT22;44308;50.810;0.284;2023-05-29T13:15:32;21.40;99.90
58517;DHT22;44308;50.810;0.284;2023-05-29T13:17:59;20.80;99.90
58517;DHT22;44308;50.810;0.284;2023-05-29T13:20:26;20.70;99.90
58517;DHT22;44308;50.810;0.284;2023-05-29T13:23:10;20.60;99.90
58517;DHT22;44308;50.810;0.284;2023-05-29T13:25:36;20.60;99.90
58517;DHT22;44308;50.810;0.284;2023-05-29T13:28:02;20.40;99.90
58517;DHT22;44308;50.810;0.284;2023-05-29T13:30:28;20.50;99.90
58517;DHT22;44308;50.810;0.284;2023-05-29T13:32:54;20.70;99.90
58517;DHT22;44308;50.810;0.284;2023-05-29T13:35:20;20.70;99.90
58517;DHT22;44308;50.810;0.284;2023-05-29T13:37:49;20.60;99.90
58517;DHT22;44308;50.810;0.284;2023-05-29T13:40:15;20.50;99.90
58517;DHT22;44308;50.810;0.284;2023-05-29T13:42:44;20.10;99.90
58517;DHT22;44308;50.810;0.284;2023-05-29T13:45:11;20.40;99.90
58517;DHT22;44308;50.810;0.284;2023-05-29T13:47:37;20.70;99.90
58517;DHT22;44308;50.810;0.284;2023-05-29T13:50:06;20.50;99.90
58517;DHT22;44308;50.810;0.284;2023-05-29T13:52:36;20.30;99.90
58517;DHT22;44308;50.810;0.284;2023-05-29T13:55:02;20.60;99.90
58517;DHT22;44308;50.810;0.284;2023-05-29T13:57:34;20.60;99.90
58517;DHT22;44308;50.810;0.284;2023-05-29T14:00:00;20.70;99.90
58517;DHT22;44308;50.810;0.284;2023-05-29T14:02:26;20.90;99.90
58517;DHT22;44308;50.810;0.284;2023-05-29T14:04:52;21.00;99.90
58517;DHT22;44308;50.810;0.284;2023-05-29T14:07:18;20.70;99.90
58517;DHT22;44308;50.810;0.284;2023-05-29T14:09:44;20.50;99.90
58517;DHT22;44308;50.810;0.284;2023-05-29T14:12:13;20.10;99.90
58517;DHT22;44308;50.810;0.284;2023-05-29T14:14:39;19.90;99.90
58517;DHT22;44308;50.810;0.284;2023-05-29T14:17:05;19.90;99.90
58517;DHT22;44308;50.810;0.284;2023-05-29T14:19:32;19.90;99.90
58517;DHT22;44308;50.810;0.284;2023-05-29T14:21:58;20.00;99.90
58517;DHT22;44308;50.810;0.284;2023-05-29T14:24:31;19.80;99.90
58517;DHT22;44308;50.810;0.284;2023-05-29T14:26:57;20.40;99.90
58517;DHT22;44308;50.810;0.284;2023-05-29T14:29:25;20.40;99.90
58517;DHT22;44308;50.810;0.284;2023-05-29T14:31:57;20.10;99.90
58517;DHT22;44308;50.810;0.284;2023-05-29T14:34:55;20.00;99.90
58517;DHT22;44308;50.810;0.284;2023-05-29T14:38:15;20.00;99.90
58517;DHT22;44308;50.810;0.284;2023-05-29T14:48:06;20.30;99.90
58517;DHT22;44308;50.810;0.284;2023-05-29T14:51:22;19.90;99.90
58517;DHT22;44308;50.810;0.284;2023-05-29T14:57:40;19.80;99.90
58517;DHT22;44308;50.810;0.284;2023-05-29T15:03:01;19.70;99.90
58517;DHT22;44308;50.810;0.284;2023-05-29T15:05:28;19.70;99.90
58517;DHT22;44308;50.810;0.284;2023-05-29T15:07:54;19.80;99.90
58517;DHT22;44308;50.810;0.284;2023-05-29T15:10:24;19.80;99.90
58517;DHT22;44308;50.810;0.284;2023-05-29T15:12:51;19.90;99.90
58517;DHT22;44308;50.810;0.284;2023-05-29T15:19:04;19.80;99.90
58517;DHT22;44308;50.810;0.284;2023-05-29T15:21:30;19.80;99.90
58517;DHT22;44308;50.810;0.284;2023-05-29T15:23:56;19.90;99.90
58517;DHT22;44308;50.810;0.284;2023-05-29T15:26:22;19.90;99.90
58517;DHT22;44308;50.810;0.284;2023-05-29T15:28:48;19.40;99.90
58517;DHT22;44308;50.810;0.284;2023-05-29T15:31:14;19.00;99.90
58517;DHT22;44308;50.810;0.284;2023-05-29T15:33:40;19.00;99.90
58517;DHT22;44308;50.810;0.284;2023-05-29T15:36:06;19.10;99.90
58517;DHT22;44308;50.810;0.284;2023-05-29T15:38:33;19.00;99.90
58517;DHT22;44308;50.810;0.284;2023-05-29T15:40:58;19.00;99.90
58517;DHT22;44308;50.810;0.284;2023-05-29T15:43:25;18.80;99.90
58517;DHT22;44308;50.810;0.284;2023-05-29T15:45:51;18.80;99.90
58517;DHT22;44308;50.810;0.284;2023-05-29T15:48:17;18.90;99.90
58517;DHT22;44308;50.810;0.284;2023-05-29T15:50:43;18.80;99.90
58517;DHT22;44308;50.810;0.284;2023-05-29T15:53:08;19.10;99.90
58517;DHT22;44308;50.810;0.284;2023-05-29T15:55:34;19.20;99.90
58517;DHT22;44308;50.810;0.284;2023-05-29T15:58:00;19.00;99.90
58517;DHT22;44308;50.810;0.284;2023-05-29T16:00:28;19.10;99.90
58517;DHT22;44308;50.810;0.284;2023-05-29T16:02:54;18.60;99.90
58517;DHT22;44308;50.810;0.284;2023-05-29T16:05:20;18.80;99.90
58517;DHT22;44308;50.810;0.284;2023-05-29T16:07:46;19.00;99.90
58517;DHT22;44308;50.810;0.284;2023-05-29T16:10:13;19.20;99.90
58517;DHT22;44308;50.810;0.284;2023-05-29T16:12:43;19.30;99.90
58517;DHT22;44308;50.810;0.284;2023-05-29T16:15:10;19.30;99.90
58517;DHT22;44308;50.810;0.284;2023-05-29T16:17:36;18.90;99.90
58517;DHT22;44308;50.810;0.284;2023-05-29T16:20:02;18.50;99.90
58517;DHT22;44308;50.810;0.284;2023-05-29T16:22:28;18.50;99.90
58517;DHT22;44308;50.810;0.284;2023-05-29T16:24:57;18.70;99.90
58517;DHT22;44308;50.810;0.284;2023-05-29T16:27:22;18.50;99.90
58517;DHT22;44308;50.810;0.284;2023-05-29T16:29:48;18.40;99.90